Acton, CA (93510)

8:34 PM PST on February 13, 2016 (GMT -0800)
Bridle Path | | Change Station
CLOSE
Current Station
Personal Weather Station
Location: Acton, CA
Elevation: 2920 ft
Nearby Weather Stations
Active Advisory: Wind Advisory Active Notice: Public Information Statement

Elev 2920 ft 34.48 °N, 118.17 °W | Updated 2 seconds ago

Clear
Clear
57.3 °F
Feels Like 57.3 °F
N
2.0
Wind Variable Wind from East
Gusts 3.0 mph

Today
High -- | Low -- °F
--% Chance of Precip.
Yesterday
High -- | Low -- °F
Precip. -- in
Pressure 30.16 in
Visibility 10.0 miles
Clouds Clear
Dew Point 26 °F
Humidity 30%
Rainfall 0.00 in
Snow Depth Not available.
6:40 AM 5:33 PM
Waxing Crescent, 37% visible
METAR KPMD 140353Z AUTO 29004KT 10SM CLR 15/01 A3017 RMK AO2 SLP211 T01500011
Pressure 30.16 in
Visibility 10.0 miles
Clouds Clear
Dew Point 26 °F
Humidity 30%
Rainfall 0.00 in
Snow Depth Not available.
6:40 AM 5:33 PM
Waxing Crescent, 37% visible
METAR KPMD 140353Z AUTO 29004KT 10SM CLR 15/01 A3017 RMK AO2 SLP211 T01500011

10-Day Weather Forecast

Almanac

Astronomy

Feb. 13, 2016 Rise Set
Actual Time
Civil Twilight
Nautical Twilight
Astronomical Twilight
Moon
Length of Visible Light
Length of Day
Tomorrow will be .
, % of the Moon is Illuminated

Today's Extremes

State Highs State Lows

Community

WunderPhotos

Upload Photos

1,892,746 photos uploaded!

WunderBlog® & News

Nearby

Air Quality

  Air Quality AQ Index Pollutant
Not available.

Snow Depth

Station Depth Elevation

Earthquake Activity

City Distance Mag. Time & Date
Minimum magnitude displayed is 2.5.

Coastal Water Temperatures

Place Temperature

Stations

Nearby Weather Stations

Station Location Temp. Windchill Dew Point Humidity Wind Precip. Elev Updated Type
                   

Watches & Warnings

Wind Advisory
Issued: 7:45 PM PST Feb. 13, 2016 – National Weather Service

... Wind Advisory remains in effect until 3 PM PST Sunday...

* winds and timing... areas of north winds 20 to 35 mph with
gusts to 50 mph. Isolated gusts over 60 mph near Whitaker
Peak. The strongest winds will be through the Interstate 5
corridor tonight through Sunday morning.

* Impacts... major roadways that could be affected include the
Interstate 5 corridor.

Precautionary/preparedness actions...

When driving... use extra caution. Be prepared for sudden gusty
cross winds.



Gomberg/sukup